createdAt,value
2019-02-16T00:00:15.990Z,62.07
2019-02-16T00:02:41.896Z,62.03
2019-02-16T00:05:07.825Z,62.15
2019-02-16T00:07:33.626Z,61.76
2019-02-16T00:09:59.454Z,62.39
2019-02-16T00:12:25.242Z,62.84
2019-02-16T00:14:53.836Z,63.04
2019-02-16T00:17:19.630Z,63.53
2019-02-16T00:19:47.292Z,63.54
2019-02-16T00:22:13.080Z,63.77
2019-02-16T00:24:41.902Z,63.62
2019-02-16T00:27:07.700Z,63.36
2019-02-16T00:29:38.255Z,63.69
2019-02-16T00:32:04.063Z,63.78
2019-02-16T00:34:33.283Z,63.75
2019-02-16T00:36:59.152Z,63.81
2019-02-16T00:39:25.319Z,64.08
2019-02-16T00:41:51.145Z,64.05
2019-02-16T00:44:16.946Z,64.45
2019-02-16T00:46:42.736Z,64.61
2019-02-16T00:49:08.825Z,64.85
2019-02-16T00:51:37.135Z,64.89
2019-02-16T00:54:02.993Z,64.89
2019-02-16T00:56:33.011Z,65.19
2019-02-16T00:58:59.066Z,65.18
2019-02-16T01:01:27.984Z,65.43
2019-02-16T01:03:53.803Z,65.48
2019-02-16T01:06:22.623Z,65.49
2019-02-16T01:08:48.767Z,65.67
2019-02-16T01:11:17.334Z,65.84
2019-02-16T01:13:43.166Z,65.93
2019-02-16T01:16:11.845Z,66.28
2019-02-16T01:18:37.701Z,66.42
2019-02-16T01:21:03.818Z,66.52
2019-02-16T01:23:29.625Z,66.23
2019-02-16T01:25:55.732Z,66.81
2019-02-16T01:28:24.428Z,67.18
2019-02-16T01:30:50.346Z,67.68
2019-02-16T01:33:19.186Z,67.77
2019-02-16T01:35:45.019Z,67.80
2019-02-16T01:38:13.619Z,67.92
2019-02-16T01:40:39.764Z,68.00
2019-02-16T01:43:07.621Z,68.22
2019-02-16T01:45:33.715Z,68.77
2019-02-16T01:48:02.844Z,68.71
2019-02-16T01:50:28.940Z,68.65
2019-02-16T01:52:57.786Z,68.75
2019-02-16T01:55:23.850Z,68.68
2019-02-16T01:57:49.971Z,68.06
2019-02-16T02:00:15.775Z,67.96
2019-02-16T02:02:41.602Z,68.06
2019-02-16T02:05:10.541Z,68.16
2019-02-16T02:07:36.369Z,67.82
2019-02-16T02:10:06.737Z,67.64
2019-02-16T02:12:32.842Z,67.99
2019-02-16T02:14:58.732Z,68.35
2019-02-16T02:17:24.548Z,68.66
2019-02-16T02:19:53.461Z,69.39
2019-02-16T02:22:19.260Z,69.65
2019-02-16T02:24:48.119Z,69.69
2019-02-16T02:27:14.213Z,69.73
2019-02-16T02:29:43.046Z,70.11
2019-02-16T02:32:09.257Z,70.63
2019-02-16T02:34:35.089Z,71.35
2019-02-16T02:37:01.169Z,72.33
2019-02-16T02:39:26.952Z,72.66
2019-02-16T02:41:54.421Z,72.17
2019-02-16T02:44:20.527Z,71.61
2019-02-16T02:46:49.213Z,71.52
2019-02-16T02:49:15.301Z,72.01
2019-02-16T02:51:51.680Z,71.17
2019-02-16T02:54:11.701Z,70.57
2019-02-16T02:56:40.611Z,70.25
2019-02-16T02:59:06.397Z,70.06
2019-02-16T03:01:34.997Z,70.70
2019-02-16T03:04:00.838Z,71.59
2019-02-16T03:06:29.711Z,71.54
2019-02-16T03:08:55.514Z,71.26
2019-02-16T03:11:21.340Z,71.12
2019-02-16T03:13:47.419Z,71.50
2019-02-16T03:16:13.244Z,72.51
2019-02-16T03:18:40.842Z,72.81
2019-02-16T03:21:06.639Z,72.43
2019-02-16T03:23:35.743Z,71.90
2019-02-16T03:26:14.418Z,71.71
2019-02-16T03:28:52.934Z,71.92
2019-02-16T03:31:28.274Z,72.18
2019-02-16T03:34:04.050Z,71.89
2019-02-16T03:36:50.354Z,71.59
2019-02-16T03:39:16.605Z,71.22
2019-02-16T03:41:42.688Z,71.45
2019-02-16T03:44:08.526Z,71.71
2019-02-16T03:46:34.341Z,71.85
2019-02-16T03:49:00.163Z,71.62
2019-02-16T03:51:26.225Z,71.24
2019-02-16T03:53:52.046Z,71.20
2019-02-16T03:56:17.863Z,71.46
2019-02-16T03:58:43.915Z,71.37
2019-02-16T04:01:09.760Z,71.57
2019-02-16T04:03:35.581Z,72.63
2019-02-16T04:06:01.645Z,73.09
2019-02-16T04:08:27.749Z,73.35
2019-02-16T04:10:53.837Z,73.22
2019-02-16T04:13:19.661Z,73.11
2019-02-16T04:15:45.731Z,73.08
2019-02-16T04:18:11.542Z,73.11
2019-02-16T04:20:37.670Z,72.54
2019-02-16T04:23:03.471Z,72.91
2019-02-16T04:25:29.288Z,73.53
2019-02-16T04:27:55.103Z,73.66
2019-02-16T04:30:20.921Z,73.40
2019-02-16T04:32:47.101Z,73.10
2019-02-16T04:35:13.257Z,73.26
2019-02-16T04:37:39.073Z,73.34
2019-02-16T04:40:04.855Z,73.59
2019-02-16T04:42:30.734Z,73.54
2019-02-16T04:44:56.550Z,73.54
2019-02-16T04:47:22.381Z,73.49
2019-02-16T04:49:48.439Z,74.34
2019-02-16T04:52:14.258Z,74.44
2019-02-16T04:54:40.506Z,74.56
2019-02-16T04:57:06.643Z,74.46
2019-02-16T04:59:32.476Z,74.65
2019-02-16T05:01:58.275Z,74.26
2019-02-16T05:04:24.076Z,74.11
2019-02-16T05:06:49.914Z,74.60
2019-02-16T05:09:15.716Z,74.55
2019-02-16T05:11:41.540Z,74.47
2019-02-16T05:14:07.631Z,74.29
2019-02-16T05:16:33.414Z,74.27
2019-02-16T05:18:59.506Z,74.10
2019-02-16T05:21:25.302Z,74.28
2019-02-16T05:23:51.174Z,74.81
2019-02-16T05:26:16.982Z,75.05
2019-02-16T05:28:42.784Z,75.11
2019-02-16T05:31:08.974Z,75.10
2019-02-16T05:33:35.127Z,75.03
2019-02-16T05:36:00.932Z,75.26
2019-02-16T05:38:27.350Z,75.51
2019-02-16T05:40:53.171Z,74.96
2019-02-16T05:43:19.265Z,74.67
2019-02-16T05:45:45.089Z,74.83
2019-02-16T05:48:11.297Z,74.93
2019-02-16T05:50:37.413Z,75.00
2019-02-16T05:53:03.269Z,75.44
2019-02-16T05:55:32.085Z,75.71
2019-02-16T05:57:58.139Z,75.89
2019-02-16T06:00:28.904Z,76.08
2019-02-16T06:02:54.721Z,75.92
2019-02-16T06:05:20.633Z,76.14
2019-02-16T06:07:46.685Z,75.85
2019-02-16T06:10:15.297Z,75.50
2019-02-16T06:12:41.068Z,75.06
2019-02-16T06:15:07.930Z,75.39
2019-02-16T06:17:33.755Z,75.69
2019-02-16T06:19:59.612Z,76.09
2019-02-16T06:22:29.447Z,75.99
2019-02-16T06:24:55.248Z,76.06
2019-02-16T06:27:24.198Z,75.98
2019-02-16T06:29:50.311Z,76.13
2019-02-16T06:32:16.092Z,76.12
2019-02-16T06:34:41.930Z,76.04
2019-02-16T06:37:21.539Z,76.00
2019-02-16T06:39:48.175Z,75.85
2019-02-16T06:42:13.990Z,75.85
2019-02-16T06:44:39.862Z,75.45
2019-02-16T06:47:05.619Z,75.68
2019-02-16T06:49:31.710Z,75.31
2019-02-16T06:51:57.506Z,75.58
2019-02-16T06:54:23.302Z,75.79
2019-02-16T06:57:06.300Z,75.86
2019-02-16T06:59:32.091Z,74.89
2019-02-16T07:01:57.879Z,73.20
2019-02-16T07:04:23.694Z,71.31
2019-02-16T07:06:49.495Z,69.11
2019-02-16T07:09:15.442Z,66.74
2019-02-16T07:11:41.273Z,65.46
2019-02-16T07:14:07.355Z,63.13
2019-02-16T07:16:41.366Z,60.80
2019-02-16T07:19:11.992Z,58.04
2019-02-16T07:21:38.103Z,56.68
2019-02-16T07:24:03.888Z,55.40
2019-02-16T07:26:30.005Z,55.06
2019-02-16T07:28:56.098Z,53.95
2019-02-16T07:31:22.024Z,52.24
2019-02-16T07:33:47.963Z,51.71
2019-02-16T07:36:13.750Z,50.93
2019-02-16T07:38:39.558Z,48.97
2019-02-16T07:41:05.624Z,47.55
2019-02-16T07:43:38.955Z,45.64
2019-02-16T07:46:15.492Z,45.83
2019-02-16T07:48:43.226Z,46.25
2019-02-16T07:51:17.255Z,45.19
2019-02-16T07:53:45.242Z,44.97
2019-02-16T07:56:12.953Z,44.40
2019-02-16T07:58:43.476Z,43.45
2019-02-16T08:01:14.175Z,41.47
2019-02-16T08:03:47.958Z,40.13
2019-02-16T08:06:28.020Z,39.09
2019-02-16T08:09:02.957Z,38.64
2019-02-16T08:11:35.359Z,38.69
2019-02-16T08:14:19.794Z,38.86
2019-02-16T08:16:53.578Z,40.39
2019-02-16T08:19:23.017Z,39.15
2019-02-16T08:21:53.932Z,37.39
2019-02-16T08:24:24.671Z,37.37
2019-02-16T08:26:55.086Z,37.27
2019-02-16T08:29:28.872Z,36.38
2019-02-16T08:31:59.870Z,36.02
2019-02-16T08:34:30.750Z,36.00
2019-02-16T08:37:01.768Z,36.00
2019-02-16T08:39:29.743Z,35.33
2019-02-16T08:42:09.950Z,34.02
2019-02-16T08:44:43.574Z,33.84
2019-02-16T08:47:20.644Z,32.62
2019-02-16T08:49:51.163Z,31.91
2019-02-16T08:52:18.831Z,31.58
2019-02-16T08:55:03.377Z,31.72
2019-02-16T08:57:46.186Z,31.87
2019-02-16T09:00:19.659Z,31.33
2019-02-16T09:02:47.380Z,30.35
2019-02-16T09:05:15.127Z,30.31
2019-02-16T09:07:55.021Z,30.27
2019-02-16T09:10:25.963Z,30.37
2019-02-16T09:12:53.945Z,30.76
2019-02-16T09:15:33.886Z,29.16
2019-02-16T09:18:01.562Z,30.44
2019-02-16T09:20:29.300Z,30.12
2019-02-16T09:22:59.761Z,29.48
2019-02-16T09:25:30.666Z,29.78
2019-02-16T09:27:58.387Z,30.90
2019-02-16T09:30:41.656Z,31.13
2019-02-16T09:33:12.186Z,30.56
2019-02-16T09:35:43.047Z,30.38
2019-02-16T09:38:27.654Z,29.05
2019-02-16T09:41:12.069Z,29.77
2019-02-16T09:43:42.848Z,29.46
2019-02-16T09:46:22.442Z,29.88
2019-02-16T09:49:02.442Z,31.07
2019-02-16T09:51:42.178Z,30.43
2019-02-16T09:54:16.371Z,30.04
2019-02-16T09:56:59.152Z,30.07
2019-02-16T09:59:35.435Z,30.93
2019-02-16T10:02:03.393Z,31.11
2019-02-16T10:04:34.411Z,30.84
2019-02-16T10:07:20.613Z,30.34
2019-02-16T10:12:41.189Z,29.40
2019-02-16T10:15:20.893Z,29.53
2019-02-16T10:17:48.587Z,29.38
2019-02-16T10:20:19.165Z,28.88
2019-02-16T10:22:55.026Z,28.87
2019-02-16T10:25:31.541Z,29.39
2019-02-16T10:28:11.410Z,28.48
2019-02-16T10:30:42.144Z,28.07
2019-02-16T10:33:09.836Z,27.25
2019-02-16T10:35:54.399Z,27.20
2019-02-16T10:38:39.534Z,27.32
2019-02-16T10:41:23.630Z,27.62
2019-02-16T10:43:57.973Z,28.08
2019-02-16T10:46:25.685Z,28.04
2019-02-16T10:48:56.200Z,28.33
2019-02-16T10:51:25.022Z,28.24
2019-02-16T10:54:00.912Z,29.43
2019-02-16T10:56:28.724Z,29.00
2019-02-16T10:59:13.097Z,30.21
2019-02-16T11:01:41.101Z,27.05
2019-02-16T11:04:20.723Z,28.22
2019-02-16T11:06:51.314Z,27.46
2019-02-16T11:09:19.006Z,26.16
2019-02-16T11:12:03.688Z,25.99
2019-02-16T11:14:31.375Z,25.86
2019-02-16T11:17:08.088Z,26.07
2019-02-16T11:19:54.063Z,26.27
2019-02-16T11:22:38.808Z,25.44
2019-02-16T11:25:26.297Z,23.83
2019-02-16T11:27:54.259Z,24.23
2019-02-16T11:30:21.960Z,24.39
2019-02-16T11:33:01.716Z,26.77
2019-02-16T11:35:29.428Z,26.05
2019-02-16T11:37:57.157Z,24.54
2019-02-16T11:40:30.723Z,24.73
2019-02-16T11:43:01.482Z,27.54
2019-02-16T11:45:35.052Z,25.75
2019-02-16T11:48:19.556Z,25.79
2019-02-16T11:50:59.363Z,25.98
2019-02-16T11:53:27.080Z,25.98
2019-02-16T11:55:54.770Z,25.69
2019-02-16T11:58:34.236Z,23.12
2019-02-16T12:01:01.919Z,23.10
2019-02-16T12:03:29.736Z,23.75
2019-02-16T12:06:00.222Z,23.02
2019-02-16T12:08:45.302Z,23.00
2019-02-16T12:11:33.841Z,22.90
2019-02-16T12:14:18.614Z,22.53
2019-02-16T12:16:55.467Z,22.91
2019-02-16T12:19:29.788Z,23.41
2019-02-16T12:22:09.898Z,23.85
2019-02-16T12:24:41.118Z,23.79
2019-02-16T12:27:29.237Z,23.81
2019-02-16T12:30:00.400Z,24.10
2019-02-16T12:32:42.846Z,24.03
2019-02-16T12:37:47.191Z,22.80
2019-02-16T12:40:17.635Z,22.88
2019-02-16T12:42:45.349Z,23.14
2019-02-16T12:45:21.380Z,23.67
2019-02-16T12:47:52.001Z,24.21
2019-02-16T12:50:25.584Z,24.18
2019-02-16T12:52:53.556Z,23.67
2019-02-16T12:55:21.307Z,24.17
2019-02-16T12:57:51.569Z,23.95
2019-02-16T13:00:31.760Z,25.53
2019-02-16T13:03:05.250Z,24.40
2019-02-16T13:05:50.538Z,24.65
2019-02-16T13:08:27.043Z,24.62
2019-02-16T13:11:00.673Z,25.45
2019-02-16T13:13:28.677Z,24.19
2019-02-16T13:15:56.688Z,23.79
2019-02-16T13:18:27.158Z,22.80
2019-02-16T13:20:57.680Z,23.62
2019-02-16T13:23:31.399Z,23.82
2019-02-16T13:26:17.123Z,23.57
2019-02-16T13:29:00.285Z,24.24
2019-02-16T13:31:33.872Z,23.09
2019-02-16T13:34:16.272Z,23.50
2019-02-16T13:37:00.780Z,24.27
2019-02-16T13:39:40.551Z,24.31
2019-02-16T13:42:10.834Z,24.08
2019-02-16T13:44:44.143Z,24.57
2019-02-16T13:47:15.507Z,23.76
2019-02-16T13:49:45.977Z,24.35
2019-02-16T13:52:26.100Z,24.86
2019-02-16T13:55:06.439Z,25.61
2019-02-16T13:57:51.315Z,25.62
2019-02-16T14:00:24.843Z,25.17
2019-02-16T14:02:55.121Z,24.50
2019-02-16T14:05:35.996Z,24.31
2019-02-16T14:08:15.384Z,25.39
2019-02-16T14:10:59.761Z,26.24
2019-02-16T14:13:27.726Z,26.34
2019-02-16T14:15:55.685Z,26.05
2019-02-16T14:18:21.515Z,24.91
2019-02-16T14:20:47.614Z,24.72
2019-02-16T14:23:13.393Z,25.59
2019-02-16T14:25:44.919Z,25.06
2019-02-16T14:28:08.815Z,24.92
2019-02-16T14:30:34.653Z,24.58
2019-02-16T14:33:00.448Z,25.44
2019-02-16T14:35:26.242Z,25.09
2019-02-16T14:37:59.944Z,24.69
2019-02-16T14:40:27.653Z,26.29
2019-02-16T14:42:53.502Z,27.97
2019-02-16T14:45:19.594Z,27.43
2019-02-16T14:47:45.690Z,26.96
2019-02-16T14:50:11.637Z,27.84
2019-02-16T14:52:37.728Z,28.26
2019-02-16T14:55:07.604Z,27.97
2019-02-16T14:57:33.424Z,26.79
2019-02-16T14:59:59.226Z,26.81
2019-02-16T15:02:25.012Z,27.27
2019-02-16T15:04:51.099Z,26.66
2019-02-16T15:07:17.146Z,27.39
2019-02-16T15:09:42.951Z,27.47
2019-02-16T15:12:09.954Z,27.62
2019-02-16T15:14:35.805Z,27.26
2019-02-16T15:17:01.609Z,27.45
2019-02-16T15:19:27.401Z,27.37
2019-02-16T15:21:53.201Z,26.73
2019-02-16T15:24:19.402Z,27.36
2019-02-16T15:26:45.483Z,27.23
2019-02-16T15:29:11.376Z,27.04
2019-02-16T15:31:37.172Z,26.79
2019-02-16T15:34:03.250Z,27.92
2019-02-16T15:36:30.599Z,28.57
2019-02-16T15:38:56.752Z,29.63
2019-02-16T15:41:22.787Z,30.55
2019-02-16T15:43:48.582Z,30.87
2019-02-16T15:46:14.424Z,30.84
2019-02-16T15:48:40.242Z,31.26
2019-02-16T15:51:06.390Z,32.10
2019-02-16T15:53:32.436Z,31.63
2019-02-16T15:55:58.532Z,32.17
2019-02-16T15:58:24.787Z,32.23
2019-02-16T16:00:50.691Z,32.61
2019-02-16T16:03:16.547Z,33.18
2019-02-16T16:05:42.376Z,33.04
2019-02-16T16:08:12.922Z,32.97
2019-02-16T16:10:43.564Z,32.88
2019-02-16T16:13:11.569Z,32.41
2019-02-16T16:15:47.926Z,32.60
2019-02-16T16:18:15.637Z,32.32
2019-02-16T16:21:00.020Z,32.41
2019-02-16T16:23:44.711Z,33.00
2019-02-16T16:26:29.081Z,33.31
2019-02-16T16:29:02.861Z,33.64
2019-02-16T16:31:36.604Z,33.91
2019-02-16T16:34:13.588Z,34.78
2019-02-16T16:36:44.542Z,35.86
2019-02-16T16:39:15.052Z,36.22
2019-02-16T16:41:51.608Z,36.72
2019-02-16T16:44:25.240Z,37.46
2019-02-16T16:46:55.833Z,37.82
2019-02-16T16:49:23.534Z,38.75
2019-02-16T16:51:54.077Z,39.26
2019-02-16T16:54:38.140Z,39.26
2019-02-16T16:57:26.481Z,39.91
2019-02-16T16:59:57.286Z,40.61
2019-02-16T17:02:40.486Z,40.67
2019-02-16T17:05:08.304Z,40.96
2019-02-16T17:07:36.108Z,41.95
2019-02-16T17:10:19.766Z,42.67
2019-02-16T17:13:04.092Z,43.58
2019-02-16T17:15:43.539Z,44.54
2019-02-16T17:18:23.878Z,44.97
2019-02-16T17:21:08.369Z,44.98
2019-02-16T17:23:54.195Z,45.10
2019-02-16T17:26:40.349Z,45.25
2019-02-16T17:29:23.535Z,46.01
2019-02-16T17:31:51.511Z,46.42
2019-02-16T17:34:19.246Z,46.42
2019-02-16T17:36:52.842Z,47.26
2019-02-16T17:39:32.654Z,47.22
2019-02-16T17:42:12.447Z,47.69
2019-02-16T17:44:58.361Z,46.95
2019-02-16T17:47:26.206Z,46.74
2019-02-16T17:50:10.977Z,47.02
2019-02-16T17:52:50.799Z,46.72
2019-02-16T17:55:21.337Z,46.96
2019-02-16T17:58:01.098Z,46.90
2019-02-16T18:00:32.116Z,47.44
2019-02-16T18:05:51.212Z,48.58
2019-02-16T18:08:18.933Z,49.49
2019-02-16T18:10:49.694Z,49.03
2019-02-16T18:13:17.395Z,49.02
2019-02-16T18:15:57.465Z,49.59
2019-02-16T18:18:34.245Z,50.33
2019-02-16T18:21:14.383Z,50.89
2019-02-16T18:23:42.095Z,51.31
2019-02-16T18:26:15.391Z,51.80
2019-02-16T18:28:59.609Z,51.89
2019-02-16T18:31:36.433Z,52.14
2019-02-16T18:34:22.905Z,52.53
2019-02-16T18:36:50.596Z,53.27
2019-02-16T18:39:24.559Z,53.67
2019-02-16T18:41:52.551Z,54.18
2019-02-16T18:44:22.950Z,54.59
2019-02-16T18:46:53.694Z,54.20
2019-02-16T18:49:21.687Z,54.13
2019-02-16T18:52:06.301Z,54.06
2019-02-16T18:54:46.724Z,54.35
2019-02-16T18:57:15.007Z,54.14
2019-02-16T19:02:38.103Z,54.98
2019-02-16T19:05:18.727Z,55.04
2019-02-16T19:07:49.576Z,55.46
2019-02-16T19:10:23.364Z,55.60
2019-02-16T19:12:51.069Z,55.97
2019-02-16T19:15:18.797Z,56.32
2019-02-16T19:17:55.535Z,56.62
2019-02-16T19:20:29.324Z,56.62
2019-02-16T19:23:05.712Z,56.64
2019-02-16T19:25:39.509Z,56.80
2019-02-16T19:28:10.320Z,56.99
2019-02-16T19:30:47.197Z,57.26
2019-02-16T19:33:33.914Z,57.44
2019-02-16T19:36:04.649Z,57.45
2019-02-16T19:38:53.450Z,57.30
2019-02-16T19:41:36.478Z,57.55
2019-02-16T19:44:04.215Z,57.84
2019-02-16T19:46:38.501Z,57.99
2019-02-16T19:49:12.317Z,58.59
2019-02-16T19:51:43.296Z,58.64
2019-02-16T19:54:11.102Z,59.51
2019-02-16T19:56:45.179Z,60.05
2019-02-16T19:59:21.950Z,60.28
2019-02-16T20:01:49.937Z,60.38
2019-02-16T20:07:26.835Z,60.58
2019-02-16T20:09:54.854Z,60.39
2019-02-16T20:12:22.825Z,60.17
2019-02-16T20:15:07.555Z,60.69
2019-02-16T20:17:35.265Z,61.18
2019-02-16T20:20:03.107Z,62.14
2019-02-16T20:22:31.727Z,62.24
2019-02-16T20:25:05.300Z,62.12
2019-02-16T20:27:37.678Z,62.37
2019-02-16T20:30:15.969Z,62.79
2019-02-16T20:32:49.272Z,62.90
2019-02-16T20:35:23.122Z,62.58
2019-02-16T20:37:51.269Z,62.38
2019-02-16T20:40:21.502Z,62.25
2019-02-16T20:42:49.232Z,62.67
2019-02-16T20:45:19.676Z,62.96
2019-02-16T20:47:53.797Z,63.03
2019-02-16T20:50:21.811Z,62.98
2019-02-16T20:53:06.219Z,62.60
2019-02-16T20:55:49.696Z,62.45
2019-02-16T20:58:34.555Z,62.53
2019-02-16T21:01:17.670Z,62.64
2019-02-16T21:03:48.097Z,63.18
2019-02-16T21:06:18.880Z,63.15
2019-02-16T21:11:39.751Z,62.76
2019-02-16T21:14:12.981Z,63.46
2019-02-16T21:16:57.480Z,63.55
2019-02-16T21:19:34.550Z,64.34
2019-02-16T21:22:02.569Z,64.34
2019-02-16T21:24:48.528Z,64.43
2019-02-16T21:27:19.528Z,64.63
2019-02-16T21:29:47.240Z,64.62
2019-02-16T21:32:14.990Z,65.12
2019-02-16T21:34:55.154Z,65.35
2019-02-16T21:37:22.867Z,65.62
2019-02-16T21:40:02.560Z,65.25
2019-02-16T21:42:41.697Z,65.37
2019-02-16T21:45:12.522Z,65.51
2019-02-16T21:47:46.173Z,65.27
2019-02-16T21:50:19.845Z,65.21
2019-02-16T21:52:47.819Z,65.59
2019-02-16T21:55:21.362Z,65.53
2019-02-16T21:58:08.334Z,65.62
2019-02-16T22:00:37.916Z,66.00
2019-02-16T22:03:11.530Z,66.57
2019-02-16T22:05:42.302Z,66.95
2019-02-16T22:08:19.115Z,67.28
2019-02-16T22:10:51.349Z,67.55
2019-02-16T22:13:17.317Z,67.76
2019-02-16T22:15:43.112Z,67.71
2019-02-16T22:18:08.925Z,68.50
2019-02-16T22:20:34.715Z,68.49
2019-02-16T22:23:00.616Z,68.52
2019-02-16T22:25:26.421Z,68.71
2019-02-16T22:27:54.911Z,68.76
2019-02-16T22:30:20.736Z,69.23
2019-02-16T22:32:49.225Z,69.28
2019-02-16T22:35:15.003Z,69.09
2019-02-16T22:37:45.438Z,68.96
2019-02-16T22:40:11.234Z,68.97
2019-02-16T22:42:39.810Z,68.98
2019-02-16T22:45:10.184Z,69.04
2019-02-16T22:47:36.063Z,69.03
2019-02-16T22:50:02.296Z,69.42
2019-02-16T22:52:28.604Z,69.56
2019-02-16T22:54:54.400Z,69.99
2019-02-16T22:57:20.224Z,70.03
2019-02-16T22:59:46.311Z,69.76
2019-02-16T23:02:12.729Z,69.65
2019-02-16T23:04:41.696Z,69.60
2019-02-16T23:07:07.790Z,69.55
2019-02-16T23:09:35.198Z,69.84
2019-02-16T23:12:00.990Z,69.80
2019-02-16T23:14:31.958Z,70.10
2019-02-16T23:16:58.018Z,69.77
2019-02-16T23:19:26.602Z,69.79
2019-02-16T23:21:52.422Z,69.55
2019-02-16T23:24:18.314Z,69.46
2019-02-16T23:26:44.443Z,69.37
2019-02-16T23:29:10.260Z,69.79
2019-02-16T23:31:36.308Z,69.97
2019-02-16T23:34:02.245Z,69.96
2019-02-16T23:36:32.986Z,70.29
2019-02-16T23:38:58.807Z,70.30
2019-02-16T23:41:27.648Z,70.93
2019-02-16T23:43:53.707Z,70.59
2019-02-16T23:46:22.511Z,70.94
2019-02-16T23:48:48.352Z,71.83
2019-02-16T23:51:16.908Z,71.84
2019-02-16T23:53:42.721Z,71.63
2019-02-16T23:56:28.666Z,71.85
2019-02-16T23:58:54.759Z,71.90
